sensor_id;sensor_type;location;lat;lon;timestamp;pressure;altitude;pressure_sealevel;temperature;humidity
56737;BME280;42618;51.226;4.910;2023-05-14T00:00:35;49703.09;;;-146.94;82.93
56737;BME280;42618;51.226;4.910;2023-05-14T00:03:01;49687.13;;;-146.94;83.48
56737;BME280;42618;51.226;4.910;2023-05-14T00:05:29;49675.19;;;-146.94;83.49
56737;BME280;42618;51.226;4.910;2023-05-14T00:07:55;49697.09;;;-146.94;84.38
56737;BME280;42618;51.226;4.910;2023-05-14T00:10:22;49667.19;;;-146.94;84.66
56737;BME280;42618;51.226;4.910;2023-05-14T00:12:50;49703.09;;;-146.94;85.05
56737;BME280;42618;51.226;4.910;2023-05-14T00:15:17;49681.16;;;-146.94;85.56
56737;BME280;42618;51.226;4.910;2023-05-14T00:17:44;49687.13;;;-146.94;86.13
56737;BME280;42618;51.226;4.910;2023-05-14T00:20:11;49697.09;;;-146.94;86.13
56737;BME280;42618;51.226;4.910;2023-05-14T00:22:38;49687.13;;;-146.94;85.92
56737;BME280;42618;51.226;4.910;2023-05-14T00:25:06;49715.03;;;-146.94;86.14
56737;BME280;42618;51.226;4.910;2023-05-14T00:27:33;49675.19;;;-146.94;86.38
56737;BME280;42618;51.226;4.910;2023-05-14T00:30:00;49651.25;;;-146.94;86.52
56737;BME280;42618;51.226;4.910;2023-05-14T00:32:26;49683.16;;;-146.94;87.22
56737;BME280;42618;51.226;4.910;2023-05-14T00:34:53;49683.16;;;-146.94;87.70
56737;BME280;42618;51.226;4.910;2023-05-14T00:37:20;49719.03;;;-146.94;87.85
56737;BME280;42618;51.226;4.910;2023-05-14T00:39:47;49691.13;;;-146.94;88.48
56737;BME280;42618;51.226;4.910;2023-05-14T00:42:14;49681.16;;;-146.94;87.87
56737;BME280;42618;51.226;4.910;2023-05-14T00:44:41;49697.09;;;-146.94;88.67
56737;BME280;42618;51.226;4.910;2023-05-14T00:47:07;49715.03;;;-146.94;88.95
56737;BME280;42618;51.226;4.910;2023-05-14T00:49:34;49707.06;;;-146.94;89.98
56737;BME280;42618;51.226;4.910;2023-05-14T00:52:01;49679.16;;;-146.94;90.17
56737;BME280;42618;51.226;4.910;2023-05-14T00:54:29;49681.16;;;-146.94;89.63
56737;BME280;42618;51.226;4.910;2023-05-14T00:56:56;49697.09;;;-146.94;89.76
56737;BME280;42618;51.226;4.910;2023-05-14T00:59:24;49731.00;;;-146.94;90.33
56737;BME280;42618;51.226;4.910;2023-05-14T01:01:51;49713.06;;;-146.94;90.31
56737;BME280;42618;51.226;4.910;2023-05-14T01:04:18;49675.19;;;-146.94;90.61
56737;BME280;42618;51.226;4.910;2023-05-14T01:07:11;49740.97;;;-146.94;91.42
56737;BME280;42618;51.226;4.910;2023-05-14T01:15:01;49681.16;;;-146.94;91.78
56737;BME280;42618;51.226;4.910;2023-05-14T01:17:30;49671.19;;;-146.94;92.06
56737;BME280;42618;51.226;4.910;2023-05-14T01:19:58;49687.13;;;-146.94;91.87
56737;BME280;42618;51.226;4.910;2023-05-14T01:22:26;49717.03;;;-146.94;91.78
56737;BME280;42618;51.226;4.910;2023-05-14T01:24:52;49727.00;;;-146.94;91.82
56737;BME280;42618;51.226;4.910;2023-05-14T01:27:40;49665.22;;;-146.94;91.98
56737;BME280;42618;51.226;4.910;2023-05-14T01:32:55;49717.03;;;-146.94;92.62
56737;BME280;42618;51.226;4.910;2023-05-14T01:35:26;49729.00;;;-146.94;92.48
56737;BME280;42618;51.226;4.910;2023-05-14T01:37:55;49727.00;;;-146.94;92.42
56737;BME280;42618;51.226;4.910;2023-05-14T01:40:23;49689.13;;;-146.94;92.00
56737;BME280;42618;51.226;4.910;2023-05-14T01:42:51;49707.06;;;-146.94;91.75
56737;BME280;42618;51.226;4.910;2023-05-14T01:45:22;49719.03;;;-146.94;92.72
56737;BME280;42618;51.226;4.910;2023-05-14T01:47:50;49734.97;;;-146.94;92.23
56737;BME280;42618;51.226;4.910;2023-05-14T01:50:17;49725.00;;;-146.94;92.85
56737;BME280;42618;51.226;4.910;2023-05-14T01:52:44;49733.00;;;-146.94;93.46
56737;BME280;42618;51.226;4.910;2023-05-14T01:55:11;49703.09;;;-146.94;92.78
56737;BME280;42618;51.226;4.910;2023-05-14T01:57:37;49687.13;;;-146.94;92.68
56737;BME280;42618;51.226;4.910;2023-05-14T02:00:05;49731.00;;;-146.94;92.13
56737;BME280;42618;51.226;4.910;2023-05-14T02:02:39;49752.91;;;-146.94;92.56
56737;BME280;42618;51.226;4.910;2023-05-14T02:05:09;49734.97;;;-146.94;92.93
56737;BME280;42618;51.226;4.910;2023-05-14T02:07:36;49695.09;;;-146.94;93.48
56737;BME280;42618;51.226;4.910;2023-05-14T02:10:04;49723.03;;;-146.94;93.93
56737;BME280;42618;51.226;4.910;2023-05-14T02:12:31;49721.03;;;-146.94;93.81
56737;BME280;42618;51.226;4.910;2023-05-14T02:14:58;49705.06;;;-146.94;93.70
56737;BME280;42618;51.226;4.910;2023-05-14T02:17:26;49750.94;;;-146.94;94.01
56737;BME280;42618;51.226;4.910;2023-05-14T02:19:53;49734.97;;;-146.94;94.16
56737;BME280;42618;51.226;4.910;2023-05-14T02:22:20;49721.03;;;-146.94;94.81
56737;BME280;42618;51.226;4.910;2023-05-14T02:24:46;49742.94;;;-146.94;95.03
56737;BME280;42618;51.226;4.910;2023-05-14T02:27:21;49707.06;;;-146.94;95.22
56737;BME280;42618;51.226;4.910;2023-05-14T02:29:48;49731.00;;;-146.94;94.81
56737;BME280;42618;51.226;4.910;2023-05-14T02:32:14;49685.13;;;-146.94;95.05
56737;BME280;42618;51.226;4.910;2023-05-14T02:34:41;49738.97;;;-146.94;95.16
56737;BME280;42618;51.226;4.910;2023-05-14T02:37:08;49738.97;;;-146.94;94.46
56737;BME280;42618;51.226;4.910;2023-05-14T02:39:35;49731.00;;;-146.94;94.57
56737;BME280;42618;51.226;4.910;2023-05-14T02:42:02;49727.00;;;-146.94;95.07
56737;BME280;42618;51.226;4.910;2023-05-14T02:44:29;49727.00;;;-146.94;94.89
56737;BME280;42618;51.226;4.910;2023-05-14T02:46:57;49719.03;;;-146.94;94.29
56737;BME280;42618;51.226;4.910;2023-05-14T02:49:24;49715.03;;;-146.94;94.71
56737;BME280;42618;51.226;4.910;2023-05-14T02:51:50;49734.97;;;-146.94;94.75
56737;BME280;42618;51.226;4.910;2023-05-14T02:54:19;49778.84;;;-146.94;95.61
56737;BME280;42618;51.226;4.910;2023-05-14T02:56:46;49715.03;;;-146.94;95.32
56737;BME280;42618;51.226;4.910;2023-05-14T02:59:13;49723.03;;;-146.94;95.71
56737;BME280;42618;51.226;4.910;2023-05-14T03:01:40;49731.00;;;-146.94;96.06
56737;BME280;42618;51.226;4.910;2023-05-14T03:04:07;49731.00;;;-146.94;96.19
56737;BME280;42618;51.226;4.910;2023-05-14T03:06:34;49727.00;;;-146.94;96.01
56737;BME280;42618;51.226;4.910;2023-05-14T03:09:01;49713.06;;;-146.94;96.10
56737;BME280;42618;51.226;4.910;2023-05-14T03:11:28;49736.97;;;-146.94;96.39
56737;BME280;42618;51.226;4.910;2023-05-14T03:13:54;49723.03;;;-146.94;96.43
56737;BME280;42618;51.226;4.910;2023-05-14T03:16:21;49701.09;;;-146.94;96.63
56737;BME280;42618;51.226;4.910;2023-05-14T03:18:48;49746.94;;;-146.94;96.20
56737;BME280;42618;51.226;4.910;2023-05-14T03:21:15;49742.94;;;-146.94;96.60
56737;BME280;42618;51.226;4.910;2023-05-14T03:23:41;49746.94;;;-146.94;97.32
56737;BME280;42618;51.226;4.910;2023-05-14T03:26:09;49721.03;;;-146.94;97.39
56737;BME280;42618;51.226;4.910;2023-05-14T03:28:35;49731.00;;;-146.94;97.01
56737;BME280;42618;51.226;4.910;2023-05-14T03:31:02;49723.03;;;-146.94;96.70
56737;BME280;42618;51.226;4.910;2023-05-14T03:33:29;49746.94;;;-146.94;97.68
56737;BME280;42618;51.226;4.910;2023-05-14T03:35:56;49742.94;;;-146.94;98.29
56737;BME280;42618;51.226;4.910;2023-05-14T03:38:23;49719.03;;;-146.94;98.48
56737;BME280;42618;51.226;4.910;2023-05-14T03:40:50;49729.00;;;-146.94;97.59
56737;BME280;42618;51.226;4.910;2023-05-14T03:43:16;49691.13;;;-146.94;97.91
56737;BME280;42618;51.226;4.910;2023-05-14T03:45:43;49746.94;;;-146.94;97.68
56737;BME280;42618;51.226;4.910;2023-05-14T03:48:10;49750.94;;;-146.94;98.94
56737;BME280;42618;51.226;4.910;2023-05-14T03:50:37;49752.91;;;-146.94;99.68
56737;BME280;42618;51.226;4.910;2023-05-14T03:53:05;49738.97;;;-146.94;99.67
56737;BME280;42618;51.226;4.910;2023-05-14T03:55:31;49744.94;;;-146.94;99.22
56737;BME280;42618;51.226;4.910;2023-05-14T03:57:58;49768.88;;;-146.94;99.58
56737;BME280;42618;51.226;4.910;2023-05-14T04:00:25;49727.00;;;-146.94;99.67
56737;BME280;42618;51.226;4.910;2023-05-14T04:02:52;49770.88;;;-146.94;100.00
56737;BME280;42618;51.226;4.910;2023-05-14T04:05:22;49719.03;;;-146.94;100.00
56737;BME280;42618;51.226;4.910;2023-05-14T04:07:48;49697.09;;;-146.94;100.00
56737;BME280;42618;51.226;4.910;2023-05-14T04:10:15;49748.94;;;-146.94;100.00
56737;BME280;42618;51.226;4.910;2023-05-14T04:12:42;49711.06;;;-146.94;99.92
56737;BME280;42618;51.226;4.910;2023-05-14T04:15:09;49734.97;;;-146.94;100.00
56737;BME280;42618;51.226;4.910;2023-05-14T04:17:36;49736.97;;;-146.94;100.00
56737;BME280;42618;51.226;4.910;2023-05-14T04:20:03;49748.94;;;-146.94;100.00
56737;BME280;42618;51.226;4.910;2023-05-14T04:22:30;49723.03;;;-146.94;100.00
56737;BME280;42618;51.226;4.910;2023-05-14T04:24:57;49758.91;;;-146.94;100.00
56737;BME280;42618;51.226;4.910;2023-05-14T04:27:24;49729.00;;;-146.94;100.00
56737;BME280;42618;51.226;4.910;2023-05-14T04:29:51;49750.94;;;-146.94;100.00
56737;BME280;42618;51.226;4.910;2023-05-14T04:32:17;49723.03;;;-146.94;100.00
56737;BME280;42618;51.226;4.910;2023-05-14T04:34:44;49729.00;;;-146.94;100.00
56737;BME280;42618;51.226;4.910;2023-05-14T04:37:12;49754.91;;;-146.94;100.00
56737;BME280;42618;51.226;4.910;2023-05-14T04:39:39;49764.88;;;-146.94;100.00
56737;BME280;42618;51.226;4.910;2023-05-14T04:42:06;49754.91;;;-146.94;100.00
56737;BME280;42618;51.226;4.910;2023-05-14T04:44:34;49770.88;;;-146.94;100.00
56737;BME280;42618;51.226;4.910;2023-05-14T04:47:01;49778.84;;;-146.94;100.00
56737;BME280;42618;51.226;4.910;2023-05-14T04:49:28;49727.00;;;-146.94;100.00
56737;BME280;42618;51.226;4.910;2023-05-14T04:51:55;49727.00;;;-146.94;100.00
56737;BME280;42618;51.226;4.910;2023-05-14T04:54:22;49742.94;;;-146.94;100.00
56737;BME280;42618;51.226;4.910;2023-05-14T04:56:49;49770.88;;;-146.94;100.00
56737;BME280;42618;51.226;4.910;2023-05-14T04:59:16;49736.97;;;-146.94;100.00
56737;BME280;42618;51.226;4.910;2023-05-14T05:01:43;49790.81;;;-146.94;100.00
56737;BME280;42618;51.226;4.910;2023-05-14T05:04:11;49738.97;;;-146.94;100.00
56737;BME280;42618;51.226;4.910;2023-05-14T05:06:38;49778.84;;;-146.94;100.00
56737;BME280;42618;51.226;4.910;2023-05-14T05:09:05;49742.94;;;-146.94;100.00
56737;BME280;42618;51.226;4.910;2023-05-14T05:11:31;49742.94;;;-146.94;100.00
56737;BME280;42618;51.226;4.910;2023-05-14T05:13:58;49754.91;;;-146.94;100.00
56737;BME280;42618;51.226;4.910;2023-05-14T05:16:25;49717.03;;;-146.94;100.00
56737;BME280;42618;51.226;4.910;2023-05-14T05:18:51;49758.91;;;-146.94;100.00
56737;BME280;42618;51.226;4.910;2023-05-14T05:21:18;49752.91;;;-146.94;100.00
56737;BME280;42618;51.226;4.910;2023-05-14T05:23:45;49758.91;;;-146.94;100.00
56737;BME280;42618;51.226;4.910;2023-05-14T05:26:12;49736.97;;;-146.94;100.00
56737;BME280;42618;51.226;4.910;2023-05-14T05:28:38;49719.03;;;-146.94;100.00
56737;BME280;42618;51.226;4.910;2023-05-14T05:31:05;49752.91;;;-146.94;100.00
56737;BME280;42618;51.226;4.910;2023-05-14T05:33:33;49748.94;;;-146.94;100.00
56737;BME280;42618;51.226;4.910;2023-05-14T05:36:00;49734.97;;;-146.94;100.00
56737;BME280;42618;51.226;4.910;2023-05-14T05:38:27;49744.94;;;-146.94;100.00
56737;BME280;42618;51.226;4.910;2023-05-14T05:40:53;49742.94;;;-146.94;99.84
56737;BME280;42618;51.226;4.910;2023-05-14T05:43:20;49703.09;;;-146.94;98.48
56737;BME280;42618;51.226;4.910;2023-05-14T05:45:47;49750.94;;;-146.94;98.81
56737;BME280;42618;51.226;4.910;2023-05-14T05:48:14;49750.94;;;-146.94;98.15
56737;BME280;42618;51.226;4.910;2023-05-14T05:50:40;49729.00;;;-146.94;97.41
56737;BME280;42618;51.226;4.910;2023-05-14T05:53:09;49764.88;;;-146.94;96.93
56737;BME280;42618;51.226;4.910;2023-05-14T05:55:36;49731.00;;;-146.94;96.53
56737;BME280;42618;51.226;4.910;2023-05-14T05:58:03;49721.03;;;-146.94;95.84
56737;BME280;42618;51.226;4.910;2023-05-14T06:00:30;49746.94;;;-146.94;95.52
56737;BME280;42618;51.226;4.910;2023-05-14T06:02:56;49727.00;;;-146.94;94.93
56737;BME280;42618;51.226;4.910;2023-05-14T06:05:23;49734.97;;;-146.94;94.09
56737;BME280;42618;51.226;4.910;2023-05-14T06:07:50;49768.88;;;-146.94;94.00
56737;BME280;42618;51.226;4.910;2023-05-14T06:10:18;49711.06;;;-146.94;94.15
56737;BME280;42618;51.226;4.910;2023-05-14T06:12:45;49687.13;;;-146.94;93.29
56737;BME280;42618;51.226;4.910;2023-05-14T06:15:12;49778.84;;;-146.94;92.20
56737;BME280;42618;51.226;4.910;2023-05-14T06:17:39;49736.97;;;-146.94;92.34
56737;BME280;42618;51.226;4.910;2023-05-14T06:20:06;49733.00;;;-146.94;92.21
56737;BME280;42618;51.226;4.910;2023-05-14T06:22:33;49768.88;;;-146.94;90.99
56737;BME280;42618;51.226;4.910;2023-05-14T06:25:00;49742.94;;;-146.94;90.00
56737;BME280;42618;51.226;4.910;2023-05-14T06:27:27;49711.06;;;-146.94;89.20
56737;BME280;42618;51.226;4.910;2023-05-14T06:29:54;49703.09;;;-146.94;88.56
56737;BME280;42618;51.226;4.910;2023-05-14T06:32:21;49746.94;;;-146.94;87.81
56737;BME280;42618;51.226;4.910;2023-05-14T06:34:47;49717.03;;;-146.94;87.43
56737;BME280;42618;51.226;4.910;2023-05-14T06:37:14;49703.09;;;-146.94;86.80
56737;BME280;42618;51.226;4.910;2023-05-14T06:39:41;49748.94;;;-146.94;86.66
56737;BME280;42618;51.226;4.910;2023-05-14T06:42:16;49734.97;;;-146.94;86.51
56737;BME280;42618;51.226;4.910;2023-05-14T06:44:43;49711.06;;;-146.94;84.86
56737;BME280;42618;51.226;4.910;2023-05-14T06:47:10;49746.94;;;-146.94;84.71
56737;BME280;42618;51.226;4.910;2023-05-14T06:49:38;49723.03;;;-146.94;84.36
56737;BME280;42618;51.226;4.910;2023-05-14T06:52:05;49727.00;;;-146.94;83.31
56737;BME280;42618;51.226;4.910;2023-05-14T06:54:31;49723.03;;;-146.94;82.48
56737;BME280;42618;51.226;4.910;2023-05-14T06:56:58;49727.00;;;-146.94;82.34
56737;BME280;42618;51.226;4.910;2023-05-14T06:59:25;49679.16;;;-146.94;81.91
56737;BME280;42618;51.226;4.910;2023-05-14T07:01:52;49699.09;;;-146.94;81.51
56737;BME280;42618;51.226;4.910;2023-05-14T07:04:18;49742.94;;;-146.94;81.07
56737;BME280;42618;51.226;4.910;2023-05-14T07:06:45;49691.13;;;-146.94;79.27
56737;BME280;42618;51.226;4.910;2023-05-14T07:09:12;49717.03;;;-146.94;80.04
56737;BME280;42618;51.226;4.910;2023-05-14T07:11:38;49719.03;;;-146.94;79.12
56737;BME280;42618;51.226;4.910;2023-05-14T07:14:05;49727.00;;;-146.94;78.97
56737;BME280;42618;51.226;4.910;2023-05-14T07:16:32;49691.13;;;-146.94;78.34
56737;BME280;42618;51.226;4.910;2023-05-14T07:18:59;49715.03;;;-146.94;76.45
56737;BME280;42618;51.226;4.910;2023-05-14T07:21:25;49703.09;;;-146.94;75.60
56737;BME280;42618;51.226;4.910;2023-05-14T07:23:53;49689.13;;;-146.94;74.86
56737;BME280;42618;51.226;4.910;2023-05-14T07:26:20;49725.00;;;-146.94;74.14
56737;BME280;42618;51.226;4.910;2023-05-14T07:28:46;49663.22;;;-146.94;73.11
56737;BME280;42618;51.226;4.910;2023-05-14T07:31:13;49701.09;;;-146.94;74.20
56737;BME280;42618;51.226;4.910;2023-05-14T07:33:40;49691.13;;;-146.94;71.86
56737;BME280;42618;51.226;4.910;2023-05-14T07:36:07;49683.16;;;-146.94;70.69
56737;BME280;42618;51.226;4.910;2023-05-14T07:38:34;49687.13;;;-146.94;71.14
56737;BME280;42618;51.226;4.910;2023-05-14T07:41:01;49675.19;;;-146.94;71.27
56737;BME280;42618;51.226;4.910;2023-05-14T07:43:28;49663.22;;;-146.94;70.07
56737;BME280;42618;51.226;4.910;2023-05-14T07:45:54;49691.13;;;-146.94;70.74
56737;BME280;42618;51.226;4.910;2023-05-14T07:48:22;49679.16;;;-146.94;69.64
56737;BME280;42618;51.226;4.910;2023-05-14T07:50:48;49687.13;;;-146.94;70.02
56737;BME280;42618;51.226;4.910;2023-05-14T07:53:15;49661.22;;;-146.94;70.92
56737;BME280;42618;51.226;4.910;2023-05-14T07:55:43;49641.28;;;-146.94;72.04
56737;BME280;42618;51.226;4.910;2023-05-14T07:58:10;49677.16;;;-146.94;70.61
56737;BME280;42618;51.226;4.910;2023-05-14T08:00:37;49675.19;;;-146.94;70.48
56737;BME280;42618;51.226;4.910;2023-05-14T08:03:03;49619.34;;;-146.94;72.72
56737;BME280;42618;51.226;4.910;2023-05-14T08:05:30;49703.09;;;-146.94;72.39
56737;BME280;42618;51.226;4.910;2023-05-14T08:07:58;49679.16;;;-146.94;72.80
56737;BME280;42618;51.226;4.910;2023-05-14T08:10:25;49679.16;;;-146.94;72.59
56737;BME280;42618;51.226;4.910;2023-05-14T08:12:52;49693.13;;;-146.94;74.66
56737;BME280;42618;51.226;4.910;2023-05-14T08:15:19;49695.09;;;-146.94;75.78
56737;BME280;42618;51.226;4.910;2023-05-14T08:17:46;49697.09;;;-146.94;76.39
56737;BME280;42618;51.226;4.910;2023-05-14T08:20:13;49671.19;;;-146.94;76.69
56737;BME280;42618;51.226;4.910;2023-05-14T08:22:39;49699.09;;;-146.94;77.43
56737;BME280;42618;51.226;4.910;2023-05-14T08:25:06;49734.97;;;-146.94;75.30
56737;BME280;42618;51.226;4.910;2023-05-14T08:27:33;49697.09;;;-146.94;75.20
56737;BME280;42618;51.226;4.910;2023-05-14T08:30:00;49655.25;;;-146.94;74.33
56737;BME280;42618;51.226;4.910;2023-05-14T08:32:27;49671.19;;;-146.94;74.31
56737;BME280;42618;51.226;4.910;2023-05-14T08:34:53;49659.22;;;-146.94;74.34
56737;BME280;42618;51.226;4.910;2023-05-14T08:37:20;49659.22;;;-146.94;72.19
56737;BME280;42618;51.226;4.910;2023-05-14T08:39:47;49681.16;;;-146.94;71.31
56737;BME280;42618;51.226;4.910;2023-05-14T08:42:14;49667.19;;;-146.94;69.10
56737;BME280;42618;51.226;4.910;2023-05-14T08:44:47;49623.34;;;-146.94;70.58
56737;BME280;42618;51.226;4.910;2023-05-14T08:47:17;49659.22;;;-146.94;69.65
56737;BME280;42618;51.226;4.910;2023-05-14T08:49:51;49659.22;;;-146.94;71.53
56737;BME280;42618;51.226;4.910;2023-05-14T08:52:21;49691.13;;;-146.94;71.25
56737;BME280;42618;51.226;4.910;2023-05-14T08:54:49;49659.22;;;-146.94;70.61
56737;BME280;42618;51.226;4.910;2023-05-14T08:57:17;49647.25;;;-146.94;71.08
56737;BME280;42618;51.226;4.910;2023-05-14T08:59:44;49665.22;;;-146.94;71.18
56737;BME280;42618;51.226;4.910;2023-05-14T09:02:11;49693.13;;;-146.94;73.31
56737;BME280;42618;51.226;4.910;2023-05-14T09:04:41;49703.09;;;-146.94;73.63
56737;BME280;42618;51.226;4.910;2023-05-14T09:07:08;49653.25;;;-146.94;71.83
56737;BME280;42618;51.226;4.910;2023-05-14T09:09:35;49659.22;;;-146.94;70.58
56737;BME280;42618;51.226;4.910;2023-05-14T09:12:02;49687.13;;;-146.94;69.58
56737;BME280;42618;51.226;4.910;2023-05-14T09:14:29;49647.25;;;-146.94;67.43
56737;BME280;42618;51.226;4.910;2023-05-14T09:16:55;49679.16;;;-146.94;67.56
56737;BME280;42618;51.226;4.910;2023-05-14T09:19:22;49641.28;;;-146.94;66.17
56737;BME280;42618;51.226;4.910;2023-05-14T09:21:49;49669.19;;;-146.94;66.97
56737;BME280;42618;51.226;4.910;2023-05-14T09:24:24;49663.22;;;-146.94;67.87
56737;BME280;42618;51.226;4.910;2023-05-14T09:26:52;49625.34;;;-146.94;67.18
56737;BME280;42618;51.226;4.910;2023-05-14T09:29:19;49647.25;;;-146.94;67.28
56737;BME280;42618;51.226;4.910;2023-05-14T09:31:49;49625.34;;;-146.94;64.27
56737;BME280;42618;51.226;4.910;2023-05-14T09:34:27;49659.22;;;-146.94;63.66
56737;BME280;42618;51.226;4.910;2023-05-14T09:37:02;49607.41;;;-146.94;64.03
56737;BME280;42618;51.226;4.910;2023-05-14T09:39:30;49615.38;;;-146.94;64.00
56737;BME280;42618;51.226;4.910;2023-05-14T09:41:57;49655.25;;;-146.94;63.84
56737;BME280;42618;51.226;4.910;2023-05-14T09:44:24;49659.22;;;-146.94;64.28
56737;BME280;42618;51.226;4.910;2023-05-14T09:46:52;49667.19;;;-146.94;64.51
56737;BME280;42618;51.226;4.910;2023-05-14T09:49:19;49639.28;;;-146.94;65.46
56737;BME280;42618;51.226;4.910;2023-05-14T09:51:47;49671.19;;;-146.94;64.92
56737;BME280;42618;51.226;4.910;2023-05-14T09:54:15;49643.28;;;-146.94;62.81
56737;BME280;42618;51.226;4.910;2023-05-14T09:56:42;49621.34;;;-146.94;61.81
56737;BME280;42618;51.226;4.910;2023-05-14T09:59:09;49651.25;;;-146.94;61.96
56737;BME280;42618;51.226;4.910;2023-05-14T10:01:36;49613.38;;;-146.94;62.28
56737;BME280;42618;51.226;4.910;2023-05-14T10:04:06;49647.25;;;-146.94;61.00
56737;BME280;42618;51.226;4.910;2023-05-14T10:06:36;49615.38;;;-146.94;58.91
56737;BME280;42618;51.226;4.910;2023-05-14T10:09:06;49653.25;;;-146.94;59.00
56737;BME280;42618;51.226;4.910;2023-05-14T10:11:37;49643.28;;;-146.94;58.67
56737;BME280;42618;51.226;4.910;2023-05-14T10:14:10;49567.53;;;-146.94;57.72
56737;BME280;42618;51.226;4.910;2023-05-14T10:16:48;49623.34;;;-146.94;56.16
56737;BME280;42618;51.226;4.910;2023-05-14T10:19:18;49611.38;;;-146.94;56.14
56737;BME280;42618;51.226;4.910;2023-05-14T10:21:55;49633.31;;;-146.94;55.51
56737;BME280;42618;51.226;4.910;2023-05-14T10:24:23;49595.44;;;-146.94;54.48
56737;BME280;42618;51.226;4.910;2023-05-14T10:26:50;49631.31;;;-146.94;53.54
56737;BME280;42618;51.226;4.910;2023-05-14T10:29:17;49645.28;;;-146.94;55.41
56737;BME280;42618;51.226;4.910;2023-05-14T10:31:51;49633.31;;;-146.94;53.32
56737;BME280;42618;51.226;4.910;2023-05-14T10:34:32;49597.44;;;-146.94;53.37
56737;BME280;42618;51.226;4.910;2023-05-14T10:37:01;49629.31;;;-146.94;54.57
56737;BME280;42618;51.226;4.910;2023-05-14T10:40:00;49591.44;;;-146.94;53.96
56737;BME280;42618;51.226;4.910;2023-05-14T10:42:31;49615.38;;;-146.94;53.15
56737;BME280;42618;51.226;4.910;2023-05-14T10:45:16;49601.41;;;-146.94;52.17
56737;BME280;42618;51.226;4.910;2023-05-14T10:47:45;49631.31;;;-146.94;53.44
56737;BME280;42618;51.226;4.910;2023-05-14T10:50:15;49627.31;;;-146.94;54.10
56737;BME280;42618;51.226;4.910;2023-05-14T10:52:44;49591.44;;;-146.94;52.22
56737;BME280;42618;51.226;4.910;2023-05-14T10:55:12;49637.28;;;-146.94;53.05
56737;BME280;42618;51.226;4.910;2023-05-14T10:57:42;49661.22;;;-146.94;52.00
56737;BME280;42618;51.226;4.910;2023-05-14T11:00:10;49591.44;;;-146.94;52.83
56737;BME280;42618;51.226;4.910;2023-05-14T11:02:42;49599.41;;;-146.94;52.24
56737;BME280;42618;51.226;4.910;2023-05-14T11:05:12;49621.34;;;-146.94;50.95
56737;BME280;42618;51.226;4.910;2023-05-14T11:07:43;49583.47;;;-146.94;49.60
56737;BME280;42618;51.226;4.910;2023-05-14T11:10:13;49601.41;;;-146.94;48.90
56737;BME280;42618;51.226;4.910;2023-05-14T11:12:45;49583.47;;;-146.94;48.14
56737;BME280;42618;51.226;4.910;2023-05-14T11:15:15;49601.41;;;-146.94;48.80
56737;BME280;42618;51.226;4.910;2023-05-14T11:17:43;49591.44;;;-146.94;48.26
56737;BME280;42618;51.226;4.910;2023-05-14T11:20:11;49619.34;;;-146.94;47.21
56737;BME280;42618;51.226;4.910;2023-05-14T11:22:39;49563.53;;;-146.94;47.74
56737;BME280;42618;51.226;4.910;2023-05-14T11:25:07;49589.44;;;-146.94;45.13
56737;BME280;42618;51.226;4.910;2023-05-14T11:27:35;49597.44;;;-146.94;45.72
56737;BME280;42618;51.226;4.910;2023-05-14T11:30:02;49601.41;;;-146.94;45.68
56737;BME280;42618;51.226;4.910;2023-05-14T11:32:32;49559.56;;;-146.94;44.34
56737;BME280;42618;51.226;4.910;2023-05-14T11:35:00;49599.41;;;-146.94;44.04
56737;BME280;42618;51.226;4.910;2023-05-14T11:37:27;49549.59;;;-146.94;43.61
56737;BME280;42618;51.226;4.910;2023-05-14T11:39:59;49583.47;;;-146.94;43.66
56737;BME280;42618;51.226;4.910;2023-05-14T11:42:26;49569.50;;;-146.94;44.30
56737;BME280;42618;51.226;4.910;2023-05-14T11:44:52;49607.41;;;-146.94;43.03
56737;BME280;42618;51.226;4.910;2023-05-14T11:47:20;49585.47;;;-146.94;43.47
56737;BME280;42618;51.226;4.910;2023-05-14T11:49:47;49569.50;;;-146.94;42.52
56737;BME280;42618;51.226;4.910;2023-05-14T11:52:15;49561.53;;;-146.94;41.55
56737;BME280;42618;51.226;4.910;2023-05-14T11:54:45;49577.50;;;-146.94;41.11
56737;BME280;42618;51.226;4.910;2023-05-14T11:57:18;49567.53;;;-146.94;41.34
56737;BME280;42618;51.226;4.910;2023-05-14T11:59:46;49539.63;;;-146.94;40.94
56737;BME280;42618;51.226;4.910;2023-05-14T12:02:16;49535.63;;;-146.94;40.23
56737;BME280;42618;51.226;4.910;2023-05-14T12:04:44;49553.56;;;-146.94;39.92
56737;BME280;42618;51.226;4.910;2023-05-14T12:07:15;49563.53;;;-146.94;39.76
56737;BME280;42618;51.226;4.910;2023-05-14T12:09:44;49565.53;;;-146.94;39.92
56737;BME280;42618;51.226;4.910;2023-05-14T12:12:21;49547.59;;;-146.94;38.96
56737;BME280;42618;51.226;4.910;2023-05-14T12:14:49;49547.59;;;-146.94;40.16
56737;BME280;42618;51.226;4.910;2023-05-14T12:17:22;49575.50;;;-146.94;40.60
56737;BME280;42618;51.226;4.910;2023-05-14T12:19:50;49559.56;;;-146.94;40.20
56737;BME280;42618;51.226;4.910;2023-05-14T12:22:19;49547.59;;;-146.94;38.97
56737;BME280;42618;51.226;4.910;2023-05-14T12:24:56;49527.66;;;-146.94;38.30
56737;BME280;42618;51.226;4.910;2023-05-14T12:27:25;49521.69;;;-146.94;36.79
56737;BME280;42618;51.226;4.910;2023-05-14T12:29:59;49549.59;;;-146.94;37.51
56737;BME280;42618;51.226;4.910;2023-05-14T12:32:45;49511.72;;;-146.94;36.56
56737;BME280;42618;51.226;4.910;2023-05-14T12:35:11;49539.63;;;-146.94;37.12
56737;BME280;42618;51.226;4.910;2023-05-14T12:37:38;49531.63;;;-146.94;35.57
56737;BME280;42618;51.226;4.910;2023-05-14T12:40:05;49557.56;;;-146.94;35.74
56737;BME280;42618;51.226;4.910;2023-05-14T12:42:35;49523.66;;;-146.94;37.86
56737;BME280;42618;51.226;4.910;2023-05-14T12:45:02;49523.66;;;-146.94;37.75
56737;BME280;42618;51.226;4.910;2023-05-14T12:47:32;49543.59;;;-146.94;38.54
56737;BME280;42618;51.226;4.910;2023-05-14T12:49:59;49535.63;;;-146.94;38.55